createdAt,value
2023-03-19T00:00:32.080Z,12.40
2023-03-19T00:03:00.330Z,12.40
2023-03-19T00:05:28.335Z,12.37
2023-03-19T00:07:56.927Z,12.37
2023-03-19T00:10:24.898Z,12.34
2023-03-19T00:12:54.624Z,12.34
2023-03-19T00:15:22.786Z,12.32
2023-03-19T00:17:50.671Z,12.31
2023-03-19T00:20:19.912Z,12.29
2023-03-19T00:22:48.742Z,12.29
2023-03-19T00:25:16.694Z,12.27
2023-03-19T00:27:44.702Z,12.25
2023-03-19T00:30:15.072Z,12.22
2023-03-19T00:32:42.945Z,12.20
2023-03-19T00:35:11.218Z,12.23
2023-03-19T00:37:39.061Z,12.23
2023-03-19T00:40:08.788Z,12.22
2023-03-19T00:42:36.722Z,12.21
2023-03-19T00:45:04.911Z,12.23
2023-03-19T00:47:34.133Z,12.18
2023-03-19T00:50:02.010Z,12.14
2023-03-19T00:52:29.896Z,12.12
2023-03-19T00:54:57.739Z,12.10
2023-03-19T00:57:25.742Z,12.10
2023-03-19T00:59:53.730Z,12.09
2023-03-19T01:02:21.616Z,12.01
2023-03-19T01:04:51.111Z,12.05
2023-03-19T01:07:18.971Z,12.00
2023-03-19T01:09:46.816Z,12.01
2023-03-19T01:12:14.711Z,11.99
2023-03-19T01:14:42.581Z,11.95
2023-03-19T01:17:10.467Z,11.94
2023-03-19T01:19:38.333Z,11.87
2023-03-19T01:22:07.712Z,11.88
2023-03-19T01:24:35.607Z,11.87
2023-03-19T01:27:03.518Z,11.88
2023-03-19T01:29:31.509Z,11.86
2023-03-19T01:31:59.397Z,11.50
2023-03-19T01:34:27.319Z,11.87
2023-03-19T01:36:55.307Z,11.84
2023-03-19T01:39:24.531Z,11.83
2023-03-19T01:41:52.624Z,11.80
2023-03-19T01:44:25.218Z,11.81
2023-03-19T01:46:53.287Z,11.78
2023-03-19T01:49:21.546Z,11.78
2023-03-19T01:51:49.424Z,11.76
2023-03-19T01:54:19.995Z,11.71
2023-03-19T01:56:50.542Z,11.71
2023-03-19T01:59:21.334Z,11.70
2023-03-19T02:01:51.781Z,11.69
2023-03-19T02:04:19.722Z,11.56
2023-03-19T02:06:47.607Z,11.68
2023-03-19T02:09:15.613Z,11.71
2023-03-19T02:11:43.486Z,11.78
2023-03-19T02:14:13.374Z,11.87
2023-03-19T02:16:41.243Z,11.93
2023-03-19T02:19:10.912Z,11.97
2023-03-19T02:21:38.765Z,12.00
2023-03-19T02:24:10.063Z,11.86
2023-03-19T02:26:39.298Z,11.89
2023-03-19T02:29:07.481Z,11.81
2023-03-19T02:31:35.493Z,11.71
2023-03-19T02:34:04.181Z,11.72
2023-03-19T02:36:34.142Z,11.68
2023-03-19T02:39:02.324Z,11.67
2023-03-19T02:41:30.568Z,11.65
2023-03-19T02:43:59.811Z,11.65
2023-03-19T02:46:27.830Z,11.64
2023-03-19T02:48:55.746Z,11.64
2023-03-19T02:51:23.604Z,11.64
2023-03-19T02:53:51.514Z,11.60
2023-03-19T02:56:19.390Z,11.59
2023-03-19T02:58:47.247Z,11.54
2023-03-19T03:01:16.692Z,11.52
2023-03-19T03:03:44.634Z,11.51
2023-03-19T03:06:12.491Z,11.48
2023-03-19T03:08:40.621Z,11.46
2023-03-19T03:11:09.308Z,11.44
2023-03-19T03:13:37.290Z,11.42
2023-03-19T03:16:05.463Z,11.39
2023-03-19T03:18:34.782Z,11.37
2023-03-19T03:21:03.593Z,11.35
2023-03-19T03:23:31.437Z,11.33
2023-03-19T03:25:59.315Z,11.32
2023-03-19T03:28:27.174Z,10.97
2023-03-19T03:30:59.791Z,11.34
2023-03-19T03:33:27.620Z,11.34
2023-03-19T03:35:57.257Z,11.30
2023-03-19T03:38:25.171Z,11.36
2023-03-19T03:40:53.523Z,11.36
2023-03-19T03:43:21.551Z,11.37
2023-03-19T03:45:49.897Z,11.36
2023-03-19T03:48:17.932Z,11.37
2023-03-19T03:50:49.249Z,11.36
2023-03-19T03:53:18.552Z,11.34
2023-03-19T03:55:46.536Z,11.31
2023-03-19T03:58:14.461Z,11.30
2023-03-19T04:00:42.351Z,11.25
2023-03-19T04:03:10.406Z,11.26
2023-03-19T04:05:38.755Z,11.24
2023-03-19T04:08:07.198Z,11.21
2023-03-19T04:10:36.856Z,11.19
2023-03-19T04:13:04.833Z,11.19
2023-03-19T04:15:32.716Z,11.11
2023-03-19T04:18:00.596Z,11.18
2023-03-19T04:20:28.457Z,11.18
2023-03-19T04:22:56.406Z,11.20
2023-03-19T04:25:24.971Z,11.21
2023-03-19T04:27:54.213Z,11.21
2023-03-19T04:30:22.126Z,11.24
2023-03-19T04:32:50.044Z,11.22
2023-03-19T04:35:19.151Z,11.21
2023-03-19T04:37:48.805Z,11.21
2023-03-19T04:40:17.128Z,11.20
2023-03-19T04:42:45.738Z,11.21
2023-03-19T04:45:14.990Z,11.20
2023-03-19T04:47:42.862Z,11.21
2023-03-19T04:50:12.862Z,11.21
2023-03-19T04:52:40.741Z,11.20
2023-03-19T04:55:09.368Z,11.23
2023-03-19T04:57:37.311Z,11.30
2023-03-19T05:00:06.948Z,11.31
2023-03-19T05:02:36.508Z,11.33
2023-03-19T05:05:04.536Z,11.38
2023-03-19T05:07:32.476Z,11.36
2023-03-19T05:10:00.395Z,11.48
2023-03-19T05:12:28.276Z,11.53
2023-03-19T05:14:56.126Z,11.43
2023-03-19T05:17:23.970Z,11.55
2023-03-19T05:19:53.622Z,11.56
2023-03-19T05:22:21.530Z,11.59
2023-03-19T05:24:49.451Z,11.58
2023-03-19T05:27:17.340Z,11.56
2023-03-19T05:29:45.248Z,11.52
2023-03-19T05:32:13.752Z,11.27
2023-03-19T05:34:41.788Z,11.44
2023-03-19T05:37:11.154Z,11.47
2023-03-19T05:39:39.008Z,11.43
2023-03-19T05:42:07.486Z,11.38
2023-03-19T05:44:35.411Z,11.34
2023-03-19T05:47:03.276Z,11.30
2023-03-19T05:49:31.175Z,11.28
2023-03-19T05:51:59.162Z,11.23
2023-03-19T05:54:28.399Z,11.19
2023-03-19T05:56:56.343Z,11.24
2023-03-19T05:59:24.256Z,11.26
2023-03-19T06:01:52.274Z,11.25
2023-03-19T06:04:20.473Z,11.22
2023-03-19T06:06:48.400Z,11.23
2023-03-19T06:09:16.341Z,11.20
2023-03-19T06:11:45.623Z,11.20
2023-03-19T06:14:13.738Z,11.18
2023-03-19T06:16:41.599Z,11.17
2023-03-19T06:19:09.449Z,11.18
2023-03-19T06:21:37.335Z,11.16
2023-03-19T06:24:05.450Z,11.15
2023-03-19T06:26:33.324Z,11.14
2023-03-19T06:29:02.580Z,11.12
2023-03-19T06:31:30.530Z,10.78
2023-03-19T06:33:58.442Z,11.12
2023-03-19T06:36:26.393Z,11.10
2023-03-19T06:38:54.744Z,11.07
2023-03-19T06:41:22.707Z,11.04
2023-03-19T06:43:50.671Z,11.03
2023-03-19T06:46:20.360Z,11.00
2023-03-19T06:48:48.312Z,11.00
2023-03-19T06:51:16.167Z,11.01
2023-03-19T06:53:44.027Z,11.01
2023-03-19T06:56:11.922Z,11.03
2023-03-19T06:58:39.828Z,11.03
2023-03-19T07:01:07.737Z,11.08
2023-03-19T07:03:37.010Z,11.12
2023-03-19T07:06:05.138Z,11.17
2023-03-19T07:08:33.007Z,11.22
2023-03-19T07:11:05.228Z,11.26
2023-03-19T07:13:33.264Z,11.24
2023-03-19T07:16:01.204Z,11.26
2023-03-19T07:18:29.076Z,11.30
2023-03-19T07:20:58.339Z,11.32
2023-03-19T07:23:26.180Z,11.41
2023-03-19T07:25:54.091Z,11.48
2023-03-19T07:28:21.942Z,11.55
2023-03-19T07:30:49.779Z,11.59
2023-03-19T07:33:17.856Z,11.61
2023-03-19T07:35:45.912Z,11.66
2023-03-19T07:38:16.174Z,11.73
2023-03-19T07:40:54.944Z,11.81
2023-03-19T07:43:29.032Z,11.83
2023-03-19T07:45:56.960Z,11.88
2023-03-19T07:48:24.845Z,11.94
2023-03-19T07:50:52.757Z,12.01
2023-03-19T07:53:22.064Z,12.04
2023-03-19T07:55:50.614Z,12.08
2023-03-19T07:58:18.509Z,12.21
2023-03-19T08:00:46.364Z,12.31
2023-03-19T08:03:14.492Z,12.29
2023-03-19T08:05:42.538Z,12.37
2023-03-19T08:08:10.513Z,12.43
2023-03-19T08:10:39.943Z,12.49
2023-03-19T08:13:07.984Z,12.58
2023-03-19T08:15:35.941Z,12.64
2023-03-19T08:18:05.049Z,12.67
2023-03-19T08:20:33.496Z,12.74
2023-03-19T08:23:01.602Z,12.92
2023-03-19T08:25:32.554Z,13.13
2023-03-19T08:28:02.037Z,13.26
2023-03-19T08:30:30.233Z,13.49
2023-03-19T08:32:58.186Z,13.58
2023-03-19T08:35:27.482Z,13.54
2023-03-19T08:37:55.748Z,13.44
2023-03-19T08:40:23.952Z,13.35
2023-03-19T08:42:52.040Z,13.30
2023-03-19T08:45:21.911Z,13.30
2023-03-19T08:47:49.897Z,13.28
2023-03-19T08:50:18.170Z,13.29
2023-03-19T08:52:46.687Z,13.30
2023-03-19T08:55:14.699Z,13.38
2023-03-19T08:57:42.946Z,13.41
2023-03-19T09:00:12.539Z,13.49
2023-03-19T09:02:41.782Z,13.54
2023-03-19T09:05:10.572Z,13.53
2023-03-19T09:07:38.466Z,13.44
2023-03-19T09:10:07.560Z,13.45
2023-03-19T09:12:35.650Z,13.42
2023-03-19T09:15:04.528Z,13.47
2023-03-19T09:17:32.430Z,13.52
2023-03-19T09:20:01.679Z,13.53
2023-03-19T09:22:29.591Z,13.57
2023-03-19T09:24:57.480Z,13.59
2023-03-19T09:27:25.432Z,13.63
2023-03-19T09:29:53.303Z,13.65
2023-03-19T09:32:21.702Z,13.69
2023-03-19T09:34:49.580Z,13.65
2023-03-19T09:37:19.183Z,13.97
2023-03-19T09:39:47.061Z,14.09
2023-03-19T09:42:26.906Z,14.08
2023-03-19T09:44:55.188Z,14.14
2023-03-19T09:47:27.265Z,13.91
2023-03-19T09:49:57.959Z,13.93
2023-03-19T09:52:36.142Z,13.93
2023-03-19T09:55:09.168Z,13.92
2023-03-19T09:57:38.184Z,13.95
2023-03-19T10:00:14.857Z,14.02
2023-03-19T10:02:43.524Z,14.07
2023-03-19T10:05:17.155Z,14.21
2023-03-19T10:08:03.136Z,14.35
2023-03-19T10:10:38.338Z,14.50
2023-03-19T10:13:10.626Z,14.77
2023-03-19T10:15:39.624Z,15.02
2023-03-19T10:18:09.696Z,15.29
2023-03-19T10:20:43.442Z,15.55
2023-03-19T10:23:27.555Z,15.77
2023-03-19T10:25:56.512Z,15.65
2023-03-19T10:28:24.431Z,15.56
2023-03-19T10:30:57.071Z,15.51
2023-03-19T10:33:27.421Z,15.53
2023-03-19T10:35:58.712Z,15.62
2023-03-19T10:38:28.121Z,15.80
2023-03-19T10:41:06.073Z,15.92
2023-03-19T10:43:36.024Z,15.93
2023-03-19T10:46:04.001Z,15.95
2023-03-19T10:48:33.509Z,15.95
2023-03-19T10:51:02.341Z,16.01
2023-03-19T10:53:33.679Z,16.08
2023-03-19T10:56:03.536Z,16.14
2023-03-19T10:58:32.250Z,16.20
2023-03-19T11:01:04.513Z,16.26
2023-03-19T11:03:33.572Z,16.34
2023-03-19T11:06:17.244Z,16.20
2023-03-19T11:08:56.685Z,16.45
2023-03-19T11:11:26.288Z,16.45
2023-03-19T11:13:54.345Z,16.07
2023-03-19T11:16:22.380Z,15.66
2023-03-19T11:18:50.587Z,15.66
2023-03-19T11:21:26.333Z,15.79
2023-03-19T11:24:01.208Z,16.03
2023-03-19T11:26:29.703Z,16.36
2023-03-19T11:29:02.721Z,16.64
2023-03-19T11:31:34.157Z,16.78
2023-03-19T11:34:12.947Z,16.91
2023-03-19T11:36:43.491Z,17.23
2023-03-19T11:39:20.203Z,17.51
2023-03-19T11:42:09.005Z,17.91
2023-03-19T11:44:40.261Z,18.07
2023-03-19T11:47:24.596Z,18.34
2023-03-19T11:50:02.757Z,18.60
2023-03-19T11:52:33.512Z,18.85
2023-03-19T11:55:11.757Z,18.85
2023-03-19T11:57:50.255Z,18.84
2023-03-19T12:00:25.800Z,18.89
2023-03-19T12:03:16.383Z,18.91
2023-03-19T12:05:49.374Z,19.06
2023-03-19T12:08:22.696Z,19.33
2023-03-19T12:11:00.252Z,19.35
2023-03-19T12:13:38.162Z,19.36
2023-03-19T12:16:11.400Z,19.45
2023-03-19T12:18:49.660Z,19.41
2023-03-19T12:21:19.793Z,19.49
2023-03-19T12:23:56.047Z,19.54
2023-03-19T12:26:27.289Z,19.58
2023-03-19T12:28:57.597Z,19.59
2023-03-19T12:32:05.390Z,19.24
2023-03-19T12:34:36.099Z,19.01
2023-03-19T12:37:10.079Z,18.90
2023-03-19T12:39:39.458Z,18.91
2023-03-19T12:42:08.897Z,18.88
2023-03-19T12:44:38.681Z,18.81
2023-03-19T12:47:10.039Z,18.92
2023-03-19T12:49:39.147Z,19.07
2023-03-19T12:52:11.584Z,19.13
2023-03-19T12:54:40.822Z,19.33
2023-03-19T12:57:11.905Z,19.41
2023-03-19T12:59:41.608Z,19.52
2023-03-19T13:02:13.703Z,19.82
2023-03-19T13:04:43.616Z,19.96
2023-03-19T13:07:14.449Z,19.97
2023-03-19T13:09:47.667Z,20.17
2023-03-19T13:12:18.901Z,20.29
2023-03-19T13:14:51.254Z,20.17
2023-03-19T13:17:23.032Z,19.89
2023-03-19T13:19:56.580Z,19.73
2023-03-19T13:22:25.473Z,19.59
2023-03-19T13:24:56.372Z,19.27
2023-03-19T13:27:33.045Z,18.89
2023-03-19T13:30:04.120Z,18.84
2023-03-19T13:32:40.885Z,18.66
2023-03-19T13:35:36.478Z,18.43
2023-03-19T13:38:13.238Z,18.39
2023-03-19T13:40:43.902Z,18.26
2023-03-19T13:43:49.244Z,18.41
2023-03-19T13:46:39.922Z,18.37
2023-03-19T13:49:26.730Z,18.51
2023-03-19T13:52:01.498Z,18.42
2023-03-19T13:54:37.857Z,18.28
2023-03-19T13:57:17.093Z,18.17
2023-03-19T13:59:46.764Z,17.95
2023-03-19T14:02:59.004Z,17.66
2023-03-19T14:05:34.541Z,17.73
2023-03-19T14:08:02.475Z,17.98
2023-03-19T14:10:30.779Z,18.34
2023-03-19T14:13:08.125Z,18.88
2023-03-19T14:15:36.864Z,19.17
2023-03-19T14:18:06.283Z,19.35
2023-03-19T14:20:40.718Z,19.46
2023-03-19T14:23:23.518Z,19.77
2023-03-19T14:26:01.381Z,20.08
2023-03-19T14:28:36.359Z,20.18
2023-03-19T14:31:07.429Z,20.24
2023-03-19T14:33:41.277Z,20.58
2023-03-19T14:36:13.755Z,21.00
2023-03-19T14:38:44.520Z,21.06
2023-03-19T14:41:15.770Z,20.92
2023-03-19T14:43:57.234Z,20.83
2023-03-19T14:46:26.899Z,20.56
2023-03-19T14:49:16.767Z,20.29
2023-03-19T14:51:59.042Z,20.00
2023-03-19T14:54:33.367Z,19.53
2023-03-19T14:57:07.700Z,19.13
2023-03-19T14:59:39.466Z,18.80
2023-03-19T15:02:07.750Z,18.55
2023-03-19T15:04:35.918Z,18.23
2023-03-19T15:07:06.032Z,17.93
2023-03-19T15:09:34.282Z,17.75
2023-03-19T15:12:33.875Z,17.55
2023-03-19T15:15:38.655Z,17.24
2023-03-19T15:18:10.343Z,16.95
2023-03-19T15:20:39.342Z,16.70
2023-03-19T15:23:20.004Z,16.45
2023-03-19T15:25:56.902Z,16.29
2023-03-19T15:28:25.524Z,16.11
2023-03-19T15:31:05.728Z,15.95
2023-03-19T15:33:43.408Z,15.56
2023-03-19T15:36:16.414Z,15.78
2023-03-19T15:38:47.021Z,15.70
2023-03-19T15:41:14.925Z,15.63
2023-03-19T15:43:42.875Z,15.54
2023-03-19T15:46:12.345Z,15.51
2023-03-19T15:48:42.403Z,15.52
2023-03-19T15:51:10.411Z,15.19
2023-03-19T15:53:38.355Z,15.40
2023-03-19T15:56:08.580Z,15.37
2023-03-19T15:58:39.822Z,15.24
2023-03-19T16:01:08.522Z,15.28
2023-03-19T16:03:38.889Z,15.16
2023-03-19T16:06:07.895Z,15.12
2023-03-19T16:08:36.244Z,15.18
2023-03-19T16:11:29.553Z,15.14
2023-03-19T16:13:58.757Z,15.12
2023-03-19T16:16:27.485Z,15.09
2023-03-19T16:18:56.287Z,15.06
2023-03-19T16:21:25.591Z,15.02
2023-03-19T16:23:56.521Z,15.01
2023-03-19T16:26:26.022Z,14.97
2023-03-19T16:29:00.899Z,14.84
2023-03-19T16:31:32.072Z,14.73
2023-03-19T16:34:00.471Z,14.64
2023-03-19T16:36:32.780Z,14.56
2023-03-19T16:39:15.486Z,14.57
2023-03-19T16:41:43.413Z,14.55
2023-03-19T16:44:17.643Z,14.53
2023-03-19T16:46:45.720Z,14.42
2023-03-19T16:49:13.629Z,14.37
2023-03-19T16:51:41.573Z,14.32
2023-03-19T16:54:11.092Z,14.12
2023-03-19T16:56:39.154Z,14.18
2023-03-19T16:59:07.291Z,14.24
2023-03-19T17:01:36.602Z,14.18
2023-03-19T17:04:09.916Z,14.16
2023-03-19T17:06:37.917Z,14.16
2023-03-19T17:09:06.513Z,14.13
2023-03-19T17:11:36.965Z,13.85
2023-03-19T17:14:07.110Z,14.10
2023-03-19T17:16:36.567Z,14.11
2023-03-19T17:19:07.225Z,14.12
2023-03-19T17:21:35.925Z,14.17
2023-03-19T17:24:05.542Z,14.12
2023-03-19T17:26:33.458Z,14.12
2023-03-19T17:29:01.960Z,14.10
2023-03-19T17:31:30.639Z,14.20
2023-03-19T17:34:01.310Z,14.16
2023-03-19T17:36:29.241Z,14.30
2023-03-19T17:38:57.146Z,14.29
2023-03-19T17:41:25.086Z,14.25
2023-03-19T17:43:53.045Z,14.09
2023-03-19T17:46:22.296Z,14.13
2023-03-19T17:48:50.940Z,14.10
2023-03-19T17:51:20.906Z,14.05
2023-03-19T17:53:49.906Z,13.95
2023-03-19T17:56:19.264Z,14.03
2023-03-19T17:58:50.178Z,14.02
2023-03-19T18:01:19.377Z,14.07
2023-03-19T18:03:47.429Z,14.09
2023-03-19T18:06:17.164Z,14.13
2023-03-19T18:08:46.905Z,14.14
2023-03-19T18:11:14.812Z,14.17
2023-03-19T18:13:42.900Z,14.20
2023-03-19T18:16:15.655Z,14.19
2023-03-19T18:18:43.567Z,14.21
2023-03-19T18:21:12.479Z,14.18
2023-03-19T18:23:43.151Z,14.08
2023-03-19T18:26:12.489Z,14.09
2023-03-19T18:28:40.511Z,14.03
2023-03-19T18:31:12.864Z,14.05
2023-03-19T18:33:40.793Z,14.03
2023-03-19T18:36:09.208Z,14.02
2023-03-19T18:38:37.101Z,14.04
2023-03-19T18:41:05.139Z,14.09
2023-03-19T18:43:34.427Z,14.10
2023-03-19T18:46:02.318Z,14.14
2023-03-19T18:48:31.328Z,14.18
2023-03-19T18:50:59.287Z,14.20
2023-03-19T18:53:27.879Z,14.16
2023-03-19T18:55:55.952Z,14.16
2023-03-19T18:58:24.876Z,14.07
2023-03-19T19:00:54.357Z,14.12
2023-03-19T19:03:28.607Z,14.18
2023-03-19T19:05:56.926Z,14.19
2023-03-19T19:08:25.419Z,14.20
2023-03-19T19:10:54.258Z,14.20
2023-03-19T19:13:23.289Z,14.20
2023-03-19T19:15:51.186Z,14.19
2023-03-19T19:18:20.979Z,14.21
2023-03-19T19:20:49.139Z,14.21
2023-03-19T19:23:17.229Z,14.24
2023-03-19T19:25:45.159Z,14.27
2023-03-19T19:28:16.608Z,14.23
2023-03-19T19:30:45.778Z,14.28
2023-03-19T19:33:17.106Z,14.31
2023-03-19T19:35:46.529Z,14.31
2023-03-19T19:38:14.835Z,14.31
2023-03-19T19:40:45.350Z,14.29
2023-03-19T19:43:17.360Z,14.29
2023-03-19T19:45:46.776Z,14.30
2023-03-19T19:48:16.054Z,14.31
2023-03-19T19:50:46.254Z,14.25
2023-03-19T19:53:14.234Z,14.32
2023-03-19T19:55:42.382Z,14.28
2023-03-19T19:58:16.200Z,14.31
2023-03-19T20:00:53.306Z,14.34
2023-03-19T20:03:29.250Z,14.38
2023-03-19T20:05:58.841Z,14.40
2023-03-19T20:08:27.196Z,14.40
2023-03-19T20:10:55.261Z,14.42
2023-03-19T20:13:24.982Z,14.41
2023-03-19T20:15:53.276Z,14.41
2023-03-19T20:18:22.440Z,14.40
2023-03-19T20:20:50.599Z,14.42
2023-03-19T20:23:20.850Z,14.43
2023-03-19T20:25:48.977Z,14.43
2023-03-19T20:28:20.682Z,14.41
2023-03-19T20:30:48.598Z,14.42
2023-03-19T20:33:18.158Z,14.46
2023-03-19T20:35:46.416Z,14.47
2023-03-19T20:38:14.677Z,14.48
2023-03-19T20:40:46.008Z,14.52
2023-03-19T20:43:21.997Z,14.51
2023-03-19T20:45:49.857Z,14.50
2023-03-19T20:48:18.466Z,14.48
2023-03-19T20:50:46.513Z,14.47
2023-03-19T20:53:14.481Z,14.51
2023-03-19T20:55:42.463Z,14.51
2023-03-19T20:58:24.434Z,14.51
2023-03-19T21:00:53.001Z,14.52
2023-03-19T21:03:22.334Z,14.53
2023-03-19T21:05:51.880Z,14.53
2023-03-19T21:08:24.377Z,14.55
2023-03-19T21:10:53.097Z,14.55
2023-03-19T21:13:22.781Z,14.53
2023-03-19T21:15:50.637Z,14.57
2023-03-19T21:18:18.765Z,14.58
2023-03-19T21:20:48.291Z,14.59
2023-03-19T21:23:18.525Z,14.54
2023-03-19T21:25:46.523Z,14.54
2023-03-19T21:28:19.643Z,14.53
2023-03-19T21:30:48.884Z,14.53
2023-03-19T21:33:24.631Z,14.51
2023-03-19T21:35:52.699Z,14.50
2023-03-19T21:38:20.864Z,14.50
2023-03-19T21:40:49.114Z,14.48
2023-03-19T21:43:20.034Z,14.47
2023-03-19T21:45:49.682Z,14.48
2023-03-19T21:48:29.883Z,14.50
2023-03-19T21:50:58.089Z,14.30
2023-03-19T21:53:26.761Z,14.52
2023-03-19T21:55:55.187Z,14.49
2023-03-19T21:58:26.326Z,14.49
2023-03-19T22:00:56.071Z,14.52
2023-03-19T22:03:24.137Z,14.52
2023-03-19T22:05:52.179Z,14.53
2023-03-19T22:08:20.431Z,14.55
2023-03-19T22:10:49.933Z,14.57
2023-03-19T22:13:21.733Z,14.59
2023-03-19T22:15:50.615Z,14.58
2023-03-19T22:18:20.379Z,14.58
2023-03-19T22:20:48.692Z,14.58
2023-03-19T22:23:16.561Z,14.60
2023-03-19T22:25:44.799Z,14.58
2023-03-19T22:28:17.270Z,14.62
2023-03-19T22:30:45.299Z,14.57
2023-03-19T22:33:15.435Z,14.59
2023-03-19T22:35:45.116Z,14.60
2023-03-19T22:38:13.080Z,14.58
2023-03-19T22:40:41.097Z,14.51
2023-03-19T22:43:16.919Z,14.55
2023-03-19T22:45:44.881Z,14.59
2023-03-19T22:48:14.195Z,14.58
2023-03-19T22:50:42.833Z,14.56
2023-03-19T22:53:20.755Z,14.51
2023-03-19T22:55:48.624Z,14.60
2023-03-19T22:58:16.600Z,14.62
2023-03-19T23:00:44.486Z,14.61
2023-03-19T23:03:15.050Z,14.60
2023-03-19T23:05:43.017Z,14.61
2023-03-19T23:08:11.246Z,14.64
2023-03-19T23:10:40.948Z,14.66
2023-03-19T23:13:09.626Z,14.68
2023-03-19T23:15:37.698Z,14.69
2023-03-19T23:18:07.158Z,14.71
2023-03-19T23:20:35.002Z,14.73
2023-03-19T23:23:03.158Z,14.74
2023-03-19T23:25:31.326Z,14.74
2023-03-19T23:28:01.848Z,14.75
2023-03-19T23:30:31.694Z,14.78
2023-03-19T23:33:00.739Z,14.81
2023-03-19T23:35:29.576Z,14.83
2023-03-19T23:37:57.633Z,14.82
2023-03-19T23:40:27.047Z,14.81
2023-03-19T23:42:55.814Z,14.78
2023-03-19T23:45:29.968Z,14.78
2023-03-19T23:47:58.726Z,14.76
2023-03-19T23:50:26.730Z,14.76
2023-03-19T23:52:54.627Z,14.44
2023-03-19T23:55:22.558Z,14.73
2023-03-19T23:57:50.431Z,14.72
